SHT22S EGLL-EGJB
Flight info
| Callsign | SHT22S |
|---|---|
| Flight time | 0h 31m |
| Altitude | 18000 |
| Route | GASGU N866 SAM N63 LELNA |
| Aircraft | A320/M-SDE3FGHIRWY/LB1 |
Departure
| Time | 2026-04-21 16:43 |
|---|---|
| Airport | London Heathrow Airport (EGLL) |
Arrival
| Time | 2026-04-21 17:14 |
|---|---|
| Airport | Guernsey Airport (EGJB) |
| Time | Latitude | Longitude | Altitude | Speed | Heading |
|---|---|---|---|---|---|
| 2026-04-21 16:17 | 51.47271 | -0.48585 | 90 ft | 0 kts | 269° |
| 2026-04-21 16:33 | 51.47271 | -0.48579 | 90 ft | 3 kts | 269° |
| 2026-04-21 16:33 | 51.47271 | -0.48536 | 89 ft | 4 kts | 269° |
| 2026-04-21 16:33 | 51.47273 | -0.48496 | 88 ft | 4 kts | 244° |
| 2026-04-21 16:34 | 51.47289 | -0.48474 | 90 ft | 3 kts | 182° |
| 2026-04-21 16:34 | 51.47309 | -0.48473 | 88 ft | 2 kts | 179° |
| 2026-04-21 16:34 | 51.47311 | -0.48473 | 88 ft | 0 kts | 179° |
| 2026-04-21 16:36 | 51.47310 | -0.48473 | 88 ft | 1 kts | 179° |
| 2026-04-21 16:36 | 51.47296 | -0.48473 | 88 ft | 3 kts | 179° |
| 2026-04-21 16:36 | 51.47266 | -0.48473 | 88 ft | 5 kts | 179° |
| 2026-04-21 16:36 | 51.47222 | -0.48472 | 89 ft | 7 kts | 179° |
| 2026-04-21 16:37 | 51.47163 | -0.48471 | 88 ft | 10 kts | 179° |
| 2026-04-21 16:37 | 51.47087 | -0.48471 | 89 ft | 12 kts | 179° |
| 2026-04-21 16:37 | 51.46998 | -0.48470 | 88 ft | 14 kts | 180° |
| 2026-04-21 16:37 | 51.46892 | -0.48470 | 88 ft | 16 kts | 180° |
| 2026-04-21 16:38 | 51.46770 | -0.48469 | 86 ft | 19 kts | 180° |
| 2026-04-21 16:38 | 51.46635 | -0.48467 | 86 ft | 10 kts | 179° |
| 2026-04-21 16:38 | 51.46596 | -0.48466 | 86 ft | 0 kts | 179° |
| 2026-04-21 16:39 | 51.46593 | -0.48466 | 86 ft | 1 kts | 180° |
| 2026-04-21 16:40 | 51.46575 | -0.48466 | 86 ft | 4 kts | 180° |
| 2026-04-21 16:40 | 51.46544 | -0.48466 | 86 ft | 6 kts | 180° |
| 2026-04-21 16:40 | 51.46497 | -0.48466 | 86 ft | 8 kts | 179° |
| 2026-04-21 16:40 | 51.46477 | -0.48403 | 87 ft | 0 kts | 90° |
| 2026-04-21 16:41 | 51.46477 | -0.48402 | 87 ft | 3 kts | 90° |
| 2026-04-21 16:42 | 51.46477 | -0.48074 | 88 ft | 61 kts | 88° |
| 2026-04-21 16:42 | 51.46482 | -0.47075 | 87 ft | 115 kts | 89° |
| 2026-04-21 16:42 | 51.46491 | -0.45562 | 126 ft | 153 kts | 88° |
| 2026-04-21 16:42 | 51.46470 | -0.43927 | 642 ft | 161 kts | 88° |
| 2026-04-21 16:43 | 51.46407 | -0.42030 | 1122 ft | 180 kts | 94° |
| 2026-04-21 16:43 | 51.45970 | -0.40092 | 1755 ft | 194 kts | 121° |
| 2026-04-21 16:43 | 51.45045 | -0.38372 | 2234 ft | 214 kts | 126° |
| 2026-04-21 16:43 | 51.44053 | -0.36486 | 2879 ft | 228 kts | 125° |
| 2026-04-21 16:44 | 51.43013 | -0.34673 | 3507 ft | 244 kts | 133° |
| 2026-04-21 16:44 | 51.42239 | -0.33742 | 4027 ft | 251 kts | 144° |
| 2026-04-21 16:44 | 51.40546 | -0.32846 | 4982 ft | 265 kts | 171° |
| 2026-04-21 16:44 | 51.39703 | -0.32876 | 5407 ft | 271 kts | 184° |
| 2026-04-21 16:45 | 51.37932 | -0.33965 | 6295 ft | 285 kts | 211° |
| 2026-04-21 16:45 | 51.36704 | -0.35655 | 7047 ft | 289 kts | 219° |
| 2026-04-21 16:45 | 51.35212 | -0.37861 | 7935 ft | 293 kts | 219° |
| 2026-04-21 16:45 | 51.33707 | -0.40077 | 8832 ft | 296 kts | 218° |
| 2026-04-21 16:46 | 51.32437 | -0.41931 | 9516 ft | 300 kts | 219° |
| 2026-04-21 16:46 | 51.30993 | -0.44328 | 10352 ft | 307 kts | 232° |
| 2026-04-21 16:46 | 51.30057 | -0.47160 | 11058 ft | 313 kts | 250° |
| 2026-04-21 16:46 | 51.29414 | -0.50602 | 11408 ft | 335 kts | 253° |
| 2026-04-21 16:47 | 51.28755 | -0.54278 | 11823 ft | 351 kts | 254° |
| 2026-04-21 16:47 | 51.28081 | -0.58045 | 12582 ft | 354 kts | 253° |
| 2026-04-21 16:47 | 51.27377 | -0.61842 | 13371 ft | 359 kts | 253° |
| 2026-04-21 16:47 | 51.26651 | -0.65619 | 14188 ft | 361 kts | 253° |
| 2026-04-21 16:48 | 51.25896 | -0.69472 | 14933 ft | 363 kts | 253° |
| 2026-04-21 16:48 | 51.25136 | -0.73327 | 15742 ft | 363 kts | 253° |
| 2026-04-21 16:48 | 51.24376 | -0.77174 | 16547 ft | 364 kts | 253° |
| 2026-04-21 16:48 | 51.23620 | -0.81007 | 17283 ft | 366 kts | 254° |
| 2026-04-21 16:49 | 51.22852 | -0.84900 | 17980 ft | 368 kts | 254° |
| 2026-04-21 16:49 | 51.22082 | -0.88809 | 18224 ft | 368 kts | 253° |
| 2026-04-21 16:49 | 51.21278 | -0.92663 | 18273 ft | 365 kts | 249° |
| 2026-04-21 16:49 | 51.20099 | -0.96233 | 18270 ft | 365 kts | 239° |
| 2026-04-21 16:50 | 51.18512 | -0.99338 | 18272 ft | 367 kts | 229° |
| 2026-04-21 16:50 | 51.16676 | -1.02155 | 18274 ft | 367 kts | 227° |
| 2026-04-21 16:50 | 51.14797 | -1.05032 | 18278 ft | 385 kts | 227° |
| 2026-04-21 16:50 | 51.12819 | -1.08079 | 18273 ft | 406 kts | 228° |
| 2026-04-21 16:51 | 51.10740 | -1.11290 | 18272 ft | 425 kts | 226° |
| 2026-04-21 16:51 | 51.08572 | -1.14633 | 18251 ft | 441 kts | 226° |
| 2026-04-21 16:51 | 51.06349 | -1.18044 | 18248 ft | 447 kts | 226° |
| 2026-04-21 16:51 | 51.04102 | -1.21475 | 18245 ft | 448 kts | 226° |
| 2026-04-21 16:52 | 51.01846 | -1.24905 | 18245 ft | 449 kts | 227° |
| 2026-04-21 16:52 | 50.99583 | -1.28331 | 18250 ft | 449 kts | 226° |
| 2026-04-21 16:52 | 50.98084 | -1.30599 | 18246 ft | 449 kts | 226° |
| 2026-04-21 16:52 | 50.94891 | -1.34882 | 18247 ft | 453 kts | 216° |
| 2026-04-21 16:53 | 50.92109 | -1.37271 | 18249 ft | 456 kts | 210° |
| 2026-04-21 16:53 | 50.89280 | -1.39540 | 18245 ft | 454 kts | 209° |
| 2026-04-21 16:53 | 50.86500 | -1.41750 | 18219 ft | 453 kts | 210° |
| 2026-04-21 16:53 | 50.83670 | -1.43993 | 18215 ft | 454 kts | 209° |
| 2026-04-21 16:54 | 50.80851 | -1.46225 | 18216 ft | 454 kts | 209° |
| 2026-04-21 16:54 | 50.78018 | -1.48468 | 18215 ft | 455 kts | 209° |
| 2026-04-21 16:54 | 50.75183 | -1.50713 | 18215 ft | 455 kts | 209° |
| 2026-04-21 16:54 | 50.72351 | -1.52955 | 18219 ft | 456 kts | 208° |
| 2026-04-21 16:55 | 50.69515 | -1.55201 | 18219 ft | 456 kts | 210° |
| 2026-04-21 16:55 | 50.66675 | -1.57451 | 18221 ft | 456 kts | 209° |
| 2026-04-21 16:55 | 50.63839 | -1.59695 | 18222 ft | 456 kts | 210° |
| 2026-04-21 16:55 | 50.60999 | -1.61939 | 18199 ft | 457 kts | 209° |
| 2026-04-21 16:56 | 50.58156 | -1.64181 | 18200 ft | 457 kts | 209° |
| 2026-04-21 16:56 | 50.55352 | -1.66388 | 18203 ft | 457 kts | 210° |
| 2026-04-21 16:56 | 50.52469 | -1.68653 | 18203 ft | 458 kts | 209° |
| 2026-04-21 16:56 | 50.49660 | -1.70853 | 18204 ft | 458 kts | 210° |
| 2026-04-21 16:57 | 50.46807 | -1.73084 | 18204 ft | 458 kts | 210° |
| 2026-04-21 16:57 | 50.43954 | -1.75313 | 18207 ft | 458 kts | 210° |
| 2026-04-21 16:57 | 50.41104 | -1.77543 | 18223 ft | 458 kts | 209° |
| 2026-04-21 16:57 | 50.38256 | -1.79767 | 18207 ft | 458 kts | 210° |
| 2026-04-21 16:58 | 50.35399 | -1.81993 | 18211 ft | 458 kts | 210° |
| 2026-04-21 16:58 | 50.32547 | -1.84209 | 18207 ft | 458 kts | 209° |
| 2026-04-21 16:58 | 50.29696 | -1.86418 | 18188 ft | 458 kts | 211° |
| 2026-04-21 16:58 | 50.26833 | -1.88637 | 18199 ft | 458 kts | 210° |
| 2026-04-21 16:59 | 50.23982 | -1.90847 | 18198 ft | 457 kts | 210° |
| 2026-04-21 16:59 | 50.21136 | -1.93051 | 18192 ft | 457 kts | 209° |
| 2026-04-21 16:59 | 50.19243 | -1.94514 | 18196 ft | 457 kts | 209° |
| 2026-04-21 16:59 | 50.16395 | -1.96711 | 18198 ft | 456 kts | 211° |
| 2026-04-21 17:00 | 50.13552 | -1.98899 | 18209 ft | 456 kts | 209° |
| 2026-04-21 17:00 | 50.10704 | -2.01088 | 18213 ft | 455 kts | 210° |
| 2026-04-21 17:00 | 50.07867 | -2.03268 | 18215 ft | 455 kts | 210° |
| 2026-04-21 17:00 | 50.05021 | -2.05453 | 18213 ft | 454 kts | 210° |
| 2026-04-21 17:01 | 50.02191 | -2.07626 | 18207 ft | 454 kts | 209° |
| 2026-04-21 17:01 | 49.99399 | -2.09898 | 18199 ft | 450 kts | 217° |
| 2026-04-21 17:01 | 49.97015 | -2.12851 | 18196 ft | 435 kts | 230° |
| 2026-04-21 17:01 | 49.95023 | -2.16271 | 18125 ft | 411 kts | 232° |
| 2026-04-21 17:02 | 49.93188 | -2.19473 | 17971 ft | 393 kts | 233° |
| 2026-04-21 17:02 | 49.91408 | -2.22577 | 17836 ft | 378 kts | 233° |
| 2026-04-21 17:02 | 49.89697 | -2.25558 | 17704 ft | 362 kts | 232° |
| 2026-04-21 17:02 | 49.88041 | -2.28441 | 17264 ft | 354 kts | 233° |
| 2026-04-21 17:03 | 49.86438 | -2.31231 | 16670 ft | 341 kts | 232° |
| 2026-04-21 17:03 | 49.84887 | -2.33931 | 16080 ft | 329 kts | 232° |
| 2026-04-21 17:03 | 49.83389 | -2.36541 | 15510 ft | 321 kts | 231° |
| 2026-04-21 17:03 | 49.81918 | -2.39103 | 14946 ft | 314 kts | 231° |
| 2026-04-21 17:04 | 49.80482 | -2.41598 | 14390 ft | 308 kts | 232° |
| 2026-04-21 17:04 | 49.79066 | -2.44060 | 13831 ft | 305 kts | 232° |
| 2026-04-21 17:04 | 49.77654 | -2.46512 | 13043 ft | 306 kts | 230° |
| 2026-04-21 17:04 | 49.76232 | -2.48975 | 12274 ft | 308 kts | 230° |
| 2026-04-21 17:05 | 49.74805 | -2.51445 | 11517 ft | 309 kts | 229° |
| 2026-04-21 17:05 | 49.73369 | -2.53929 | 10773 ft | 311 kts | 228° |
| 2026-04-21 17:05 | 49.71895 | -2.56313 | 10048 ft | 311 kts | 219° |
| 2026-04-21 17:05 | 49.70094 | -2.58148 | 9261 ft | 310 kts | 208° |
| 2026-04-21 17:06 | 49.68230 | -2.59810 | 8478 ft | 310 kts | 208° |
| 2026-04-21 17:06 | 49.66338 | -2.61506 | 7670 ft | 310 kts | 207° |
| 2026-04-21 17:06 | 49.64501 | -2.63150 | 6938 ft | 309 kts | 206° |
| 2026-04-21 17:06 | 49.62638 | -2.64812 | 6176 ft | 309 kts | 207° |
| 2026-04-21 17:07 | 49.60785 | -2.66461 | 5405 ft | 307 kts | 207° |
| 2026-04-21 17:07 | 49.58939 | -2.68100 | 4636 ft | 305 kts | 204° |
| 2026-04-21 17:07 | 49.57115 | -2.69720 | 4190 ft | 293 kts | 205° |
| 2026-04-21 17:07 | 49.55416 | -2.71240 | 4054 ft | 277 kts | 204° |
| 2026-04-21 17:08 | 49.53773 | -2.72703 | 3841 ft | 267 kts | 204° |
| 2026-04-21 17:08 | 49.52208 | -2.74092 | 3636 ft | 250 kts | 201° |
| 2026-04-21 17:08 | 49.50781 | -2.75439 | 3561 ft | 238 kts | 212° |
| 2026-04-21 17:08 | 49.49692 | -2.77360 | 3497 ft | 236 kts | 228° |
| 2026-04-21 17:09 | 49.47674 | -2.80734 | 3246 ft | 194 kts | 196° |
| 2026-04-21 17:09 | 49.46438 | -2.81291 | 2910 ft | 180 kts | 179° |
| 2026-04-21 17:09 | 49.45224 | -2.81444 | 2522 ft | 168 kts | 162° |
| 2026-04-21 17:10 | 49.44177 | -2.80853 | 2126 ft | 155 kts | 137° |
| 2026-04-21 17:10 | 49.43466 | -2.79791 | 2010 ft | 132 kts | 116° |
| 2026-04-21 17:10 | 49.43096 | -2.78586 | 2011 ft | 124 kts | 100° |
| 2026-04-21 17:10 | 49.43081 | -2.77263 | 2013 ft | 126 kts | 89° |
| 2026-04-21 17:11 | 49.43086 | -2.75914 | 2014 ft | 126 kts | 88° |
| 2026-04-21 17:11 | 49.43107 | -2.74555 | 1963 ft | 128 kts | 87° |
| 2026-04-21 17:11 | 49.43137 | -2.73203 | 1862 ft | 127 kts | 86° |
| 2026-04-21 17:11 | 49.43170 | -2.71857 | 1701 ft | 126 kts | 86° |
| 2026-04-21 17:12 | 49.43206 | -2.70517 | 1533 ft | 126 kts | 86° |
| 2026-04-21 17:12 | 49.43243 | -2.69194 | 1360 ft | 118 kts | 86° |
| 2026-04-21 17:12 | 49.43276 | -2.67977 | 1193 ft | 113 kts | 85° |
| 2026-04-21 17:12 | 49.43311 | -2.66757 | 1047 ft | 115 kts | 84° |
| 2026-04-21 17:13 | 49.43346 | -2.65514 | 878 ft | 120 kts | 85° |
| 2026-04-21 17:13 | 49.43380 | -2.64249 | 704 ft | 121 kts | 84° |
| 2026-04-21 17:13 | 49.43421 | -2.62965 | 550 ft | 124 kts | 85° |
| 2026-04-21 17:13 | 49.43453 | -2.61677 | 381 ft | 120 kts | 82° |
| 2026-04-21 17:14 | 49.43490 | -2.60455 | 309 ft | 95 kts | 87° |
| 2026-04-21 17:14 | 49.43506 | -2.59909 | 322 ft | 12 kts | 88° |
| 2026-04-21 17:14 | 49.43482 | -2.59863 | 322 ft | 8 kts | 177° |
| 2026-04-21 17:14 | 49.43430 | -2.59859 | 325 ft | 7 kts | 177° |
| 2026-04-21 17:15 | 49.43381 | -2.59857 | 325 ft | 8 kts | 179° |
| 2026-04-21 17:15 | 49.43349 | -2.59817 | 325 ft | 0 kts | 107° |
| 2026-04-21 17:18 | 49.43348 | -2.59790 | 327 ft | 7 kts | 87° |
| 2026-04-21 17:18 | 49.43353 | -2.59694 | 326 ft | 7 kts | 126° |
| 2026-04-21 17:18 | 49.43306 | -2.59687 | 328 ft | 5 kts | 178° |
| 2026-04-21 17:18 | 49.43274 | -2.59685 | 328 ft | 1 kts | 178° |
| 2026-04-21 17:19 | 49.43262 | -2.59684 | 328 ft | 2 kts | 178° |
| 2026-04-21 17:19 | 49.43256 | -2.59684 | 328 ft | 0 kts | 178° |
| 2026-04-21 17:19 | 49.43255 | -2.59684 | 328 ft | 0 kts | 178° |